Time,TemperatureF,DewpointF,PressureIn,WindDirection,WindDirectionDegrees,WindSpeedMPH,WindSpeedGustMPH,Humidity,HourlyPrecipIn,Conditions,Clouds,dailyrainin,SoftwareType,DateUTC
2013-06-26 00:02:00,79.0,65.0,29.88,South,170,8.0,14.0,62,-99.99,,,-99.99,,2013-06-26 05:02:00,
2013-06-26 00:11:00,79.0,65.0,29.87,South,175,8.0,14.0,62,-99.99,,,-99.99,,2013-06-26 05:11:00,
2013-06-26 00:34:00,79.0,65.0,29.87,South,175,9.0,15.0,63,-99.99,,,-99.99,,2013-06-26 05:34:00,
2013-06-26 00:43:00,79.0,65.0,29.87,SSE,165,9.0,14.0,64,-99.99,,,-99.99,,2013-06-26 05:43:00,
2013-06-26 01:02:00,78.0,65.0,29.87,SSE,150,9.0,17.0,66,-99.99,,,-99.99,,2013-06-26 06:02:00,
2013-06-26 01:11:00,77.0,65.0,29.87,SSE,150,10.0,15.0,66,-99.99,,,-99.99,,2013-06-26 06:11:00,
2013-06-26 01:34:00,77.0,65.0,29.86,SSE,155,10.0,17.0,67,-99.99,,,-99.99,,2013-06-26 06:34:00,
2013-06-26 01:43:00,77.0,66.0,29.86,SSE,155,12.0,17.0,68,-99.99,,,-99.99,,2013-06-26 06:43:00,
2013-06-26 01:53:00,77.0,66.0,29.85,SSE,160,11.0,15.0,69,-99.99,,,-99.99,,2013-06-26 06:53:00,
2013-06-26 02:01:00,77.0,66.0,29.85,SSE,160,11.0,15.0,69,-99.99,,,-99.99,,2013-06-26 07:01:00,
2013-06-26 02:11:00,76.0,65.0,29.85,SSE,155,10.0,16.0,69,-99.99,,,-99.99,,2013-06-26 07:11:00,
2013-06-26 02:33:00,76.0,66.0,29.84,SSE,155,11.0,15.0,71,-99.99,,,-99.99,,2013-06-26 07:33:00,
2013-06-26 02:43:00,76.0,66.0,29.84,SSE,160,11.0,17.0,71,-99.99,,,-99.99,,2013-06-26 07:43:00,
2013-06-26 03:01:00,76.0,66.0,29.83,South,170,10.0,15.0,72,-99.99,,,-99.99,,2013-06-26 08:01:00,
2013-06-26 03:11:00,75.0,66.0,29.83,South,170,9.0,15.0,73,-99.99,,,-99.99,,2013-06-26 08:11:00,
2013-06-26 03:33:00,75.0,66.0,29.83,SSE,155,12.0,18.0,74,-99.99,,,-99.99,,2013-06-26 08:33:00,
2013-06-26 03:42:00,75.0,66.0,29.83,South,170,10.0,17.0,74,-99.99,,,-99.99,,2013-06-26 08:42:00,
2013-06-26 04:01:00,75.0,66.0,29.83,SSE,150,12.0,17.0,75,-99.99,,,-99.99,,2013-06-26 09:01:00,
2013-06-26 04:11:00,75.0,66.0,29.83,SSE,150,12.0,18.0,75,-99.99,,,-99.99,,2013-06-26 09:11:00,
2013-06-26 04:33:00,75.0,67.0,29.83,SSE,155,11.0,18.0,76,-99.99,,,-99.99,,2013-06-26 09:33:00,
2013-06-26 04:43:00,75.0,67.0,29.83,SSE,165,9.0,15.0,76,-99.99,,,-99.99,,2013-06-26 09:43:00,
2013-06-26 05:01:00,75.0,67.0,29.82,SSE,150,12.0,16.0,76,-99.99,,,-99.99,,2013-06-26 10:01:00,
2013-06-26 05:12:00,75.0,67.0,29.83,SSE,150,10.0,17.0,76,-99.99,,,-99.99,,2013-06-26 10:12:00,
2013-06-26 05:34:00,75.0,67.0,29.82,SSE,165,9.0,17.0,77,-99.99,,,-99.99,,2013-06-26 10:34:00,
2013-06-26 05:43:00,75.0,67.0,29.83,South,180,10.0,16.0,77,-99.99,,,-99.99,,2013-06-26 10:43:00,
2013-06-26 06:02:00,75.0,67.0,29.82,South,180,13.0,16.0,76,-99.99,,,-99.99,,2013-06-26 11:02:00,
2013-06-26 06:12:00,75.0,67.0,29.82,South,175,12.0,20.0,76,-99.99,,,-99.99,,2013-06-26 11:12:00,
2013-06-26 06:33:00,75.0,68.0,29.82,South,185,10.0,18.0,77,-99.99,,,-99.99,,2013-06-26 11:33:00,
2013-06-26 06:44:00,75.0,68.0,29.82,South,185,11.0,16.0,77,-99.99,,,-99.99,,2013-06-26 11:44:00,
2013-06-26 07:02:00,75.0,67.0,29.83,South,180,9.0,17.0,77,-99.99,,,-99.99,,2013-06-26 12:02:00,
2013-06-26 07:12:00,75.0,67.0,29.83,SSE,165,10.0,15.0,77,-99.99,,,-99.99,,2013-06-26 12:12:00,
2013-06-26 07:33:00,75.0,68.0,29.84,SSE,155,8.0,14.0,78,-99.99,,,-99.99,,2013-06-26 12:33:00,
2013-06-26 07:42:00,76.0,68.0,29.84,South,185,10.0,15.0,76,-99.99,,,-99.99,,2013-06-26 12:42:00,
2013-06-26 08:02:00,77.0,68.0,29.85,South,185,7.0,11.0,74,-99.99,,,-99.99,,2013-06-26 13:02:00,
2013-06-26 08:11:00,78.0,68.0,29.85,South,170,6.0,11.0,72,-99.99,,,-99.99,,2013-06-26 13:11:00,
2013-06-26 08:22:00,78.0,68.0,29.85,South,170,6.0,11.0,72,-99.99,,,-99.99,,2013-06-26 13:22:00,
2013-06-26 08:34:00,79.0,69.0,29.85,South,190,6.0,13.0,70,-99.99,,,-99.99,,2013-06-26 13:34:00,
2013-06-26 08:42:00,80.0,69.0,29.85,South,180,6.0,11.0,69,-99.99,,,-99.99,,2013-06-26 13:42:00,
2013-06-26 09:02:00,81.0,69.0,29.85,South,180,8.0,13.0,67,-99.99,,,-99.99,,2013-06-26 14:02:00,
2013-06-26 09:12:00,81.0,68.0,29.86,SSW,195,6.0,14.0,65,-99.99,,,-99.99,,2013-06-26 14:12:00,
2013-06-26 09:24:00,81.0,68.0,29.86,SSW,195,6.0,14.0,65,-99.99,,,-99.99,,2013-06-26 14:24:00,
2013-06-26 09:34:00,82.0,68.0,29.86,SW,215,9.0,14.0,62,-99.99,,,-99.99,,2013-06-26 14:34:00,
2013-06-26 09:42:00,83.0,67.0,29.86,SSW,210,10.0,18.0,60,-99.99,,,-99.99,,2013-06-26 14:42:00,
2013-06-26 10:02:00,83.0,68.0,29.87,SW,235,8.0,18.0,59,-99.99,,,-99.99,,2013-06-26 15:02:00,
2013-06-26 10:11:00,84.0,67.0,29.87,SSW,195,9.0,16.0,58,-99.99,,,-99.99,,2013-06-26 15:11:00,
2013-06-26 10:22:00,84.0,67.0,29.87,SSW,195,9.0,16.0,58,-99.99,,,-99.99,,2013-06-26 15:22:00,
2013-06-26 10:34:00,85.0,67.0,29.87,SW,220,11.0,18.0,56,-99.99,,,-99.99,,2013-06-26 15:34:00,
2013-06-26 10:44:00,86.0,68.0,29.87,SW,215,7.0,17.0,55,-99.99,,,-99.99,,2013-06-26 15:44:00,
2013-06-26 11:01:00,86.0,68.0,29.87,WSW,240,7.0,18.0,56,-99.99,,,-99.99,,2013-06-26 16:01:00,
2013-06-26 11:11:00,86.0,68.0,29.87,West,265,13.0,27.0,56,-99.99,,,-99.99,,2013-06-26 16:11:00,
2013-06-26 11:22:00,86.0,68.0,29.87,West,265,13.0,27.0,56,-99.99,,,-99.99,,2013-06-26 16:22:00,
2013-06-26 11:34:00,86.0,68.0,29.87,WSW,250,14.0,22.0,55,-99.99,,,-99.99,,2013-06-26 16:34:00,
2013-06-26 11:43:00,86.0,68.0,29.87,West,260,15.0,22.0,55,-99.99,,,-99.99,,2013-06-26 16:43:00,
2013-06-26 12:02:00,87.0,68.0,29.87,West,260,13.0,23.0,54,-99.99,,,-99.99,,2013-06-26 17:02:00,
2013-06-26 12:11:00,87.0,68.0,29.87,WSW,240,13.0,21.0,53,-99.99,,,-99.99,,2013-06-26 17:11:00,
2013-06-26 12:23:00,87.0,68.0,29.87,WSW,240,13.0,21.0,53,-99.99,,,-99.99,,2013-06-26 17:23:00,
2013-06-26 12:33:00,88.0,68.0,29.87,SW,230,14.0,20.0,52,-99.99,,,-99.99,,2013-06-26 17:33:00,
2013-06-26 12:43:00,88.0,68.0,29.87,WSW,240,11.0,20.0,52,-99.99,,,-99.99,,2013-06-26 17:43:00,
2013-06-26 13:01:00,88.0,69.0,29.88,SSW,200,8.0,20.0,53,-99.99,,,-99.99,,2013-06-26 18:01:00,
2013-06-26 13:11:00,88.0,69.0,29.88,SW,225,12.0,19.0,53,-99.99,,,-99.99,,2013-06-26 18:11:00,
2013-06-26 13:22:00,88.0,69.0,29.88,SW,225,12.0,19.0,53,-99.99,,,-99.99,,2013-06-26 18:22:00,
2013-06-26 13:34:00,89.0,69.0,29.88,WSW,255,11.0,17.0,52,-99.99,,,-99.99,,2013-06-26 18:34:00,
2013-06-26 13:43:00,89.0,70.0,29.88,SW,235,7.0,18.0,53,-99.99,,,-99.99,,2013-06-26 18:43:00,
2013-06-26 13:52:00,90.0,70.0,29.87,WNW,285,12.0,21.0,52,-99.99,,,-99.99,,2013-06-26 18:52:00,
2013-06-26 14:02:00,90.0,70.0,29.87,WNW,285,12.0,21.0,52,-99.99,,,-99.99,,2013-06-26 19:02:00,
2013-06-26 14:11:00,91.0,70.0,29.87,West,275,5.0,14.0,51,-99.99,,,-99.99,,2013-06-26 19:11:00,
2013-06-26 14:20:00,90.0,69.0,29.87,WSW,240,10.0,16.0,50,-99.99,,,-99.99,,2013-06-26 19:20:00,
2013-06-26 14:22:00,91.0,70.0,29.87,West,275,5.0,14.0,51,-99.99,,,-99.99,,2013-06-26 19:22:00,
2013-06-26 14:33:00,91.0,70.0,29.87,West,280,9.0,15.0,50,-99.99,,,-99.99,,2013-06-26 19:33:00,
2013-06-26 14:42:00,90.0,70.0,29.87,West,270,16.0,22.0,53,-99.99,,,-99.99,,2013-06-26 19:42:00,
2013-06-26 15:01:00,90.0,69.0,29.87,WSW,240,10.0,16.0,50,-99.99,,,-99.99,,2013-06-26 20:01:00,
2013-06-26 15:12:00,90.0,69.0,29.87,WSW,240,10.0,16.0,50,-99.99,,,-99.99,,2013-06-26 20:12:00,
2013-06-26 15:33:00,91.0,71.0,29.86,WSW,250,9.0,13.0,52,-99.99,,,-99.99,,2013-06-26 20:33:00,
2013-06-26 15:43:00,91.0,70.0,29.86,WSW,255,11.0,20.0,51,-99.99,,,-99.99,,2013-06-26 20:43:00,
2013-06-26 16:02:00,91.0,70.0,29.86,West,275,11.0,23.0,51,-99.99,,,-99.99,,2013-06-26 21:02:00,
2013-06-26 16:12:00,92.0,69.0,29.86,WNW,285,10.0,17.0,47,-99.99,,,-99.99,,2013-06-26 21:12:00,
2013-06-26 16:33:00,92.0,70.0,29.85,WSW,245,8.0,18.0,48,-99.99,,,-99.99,,2013-06-26 21:33:00,
2013-06-26 16:43:00,91.0,70.0,29.85,WSW,245,12.0,18.0,49,-99.99,,,-99.99,,2013-06-26 21:43:00,
2013-06-26 17:01:00,92.0,69.0,29.85,West,270,12.0,20.0,47,-99.99,,,-99.99,,2013-06-26 22:01:00,
2013-06-26 17:11:00,91.0,69.0,29.85,SW,235,12.0,18.0,48,-99.99,,,-99.99,,2013-06-26 22:11:00,
2013-06-26 17:22:00,91.0,69.0,29.85,SW,235,12.0,18.0,48,-99.99,,,-99.99,,2013-06-26 22:22:00,
2013-06-26 17:34:00,92.0,69.0,29.85,SW,220,11.0,17.0,47,-99.99,,,-99.99,,2013-06-26 22:34:00,
2013-06-26 17:43:00,92.0,71.0,29.84,SSW,200,6.0,15.0,50,-99.99,,,-99.99,,2013-06-26 22:43:00,
2013-06-26 18:02:00,92.0,69.0,29.84,West,280,14.0,19.0,47,-99.99,,,-99.99,,2013-06-26 23:02:00,
2013-06-26 18:11:00,92.0,71.0,29.84,SW,235,10.0,16.0,51,-99.99,,,-99.99,,2013-06-26 23:11:00,
2013-06-26 18:34:00,91.0,68.0,29.84,SW,235,10.0,16.0,47,-99.99,,,-99.99,,2013-06-26 23:34:00,
2013-06-26 18:43:00,91.0,70.0,29.84,West,260,9.0,16.0,49,-99.99,,,-99.99,,2013-06-26 23:43:00,
2013-06-26 19:01:00,91.0,69.0,29.85,WSW,245,10.0,17.0,49,-99.99,,,-99.99,,2013-06-27 00:01:00,
2013-06-26 19:12:00,91.0,69.0,29.85,West,265,9.0,17.0,49,-99.99,,,-99.99,,2013-06-27 00:12:00,
2013-06-26 19:33:00,91.0,70.0,29.85,West,275,9.0,18.0,51,-99.99,,,-99.99,,2013-06-27 00:33:00,
2013-06-26 19:42:00,90.0,71.0,29.86,SW,225,9.0,17.0,54,-99.99,,,-99.99,,2013-06-27 00:42:00,
2013-06-26 20:01:00,90.0,70.0,29.86,West,280,10.0,15.0,53,-99.99,,,-99.99,,2013-06-27 01:01:00,
2013-06-26 20:11:00,90.0,72.0,29.87,WNW,285,9.0,14.0,56,-99.99,,,-99.99,,2013-06-27 01:11:00,
2013-06-26 20:32:00,89.0,71.0,29.87,WSW,255,8.0,15.0,57,-99.99,,,-99.99,,2013-06-27 01:32:00,
2013-06-26 20:43:00,88.0,71.0,29.87,West,270,9.0,14.0,58,-99.99,,,-99.99,,2013-06-27 01:43:00,
2013-06-26 20:53:00,88.0,72.0,29.87,WSW,255,6.0,10.0,60,-99.99,,,-99.99,,2013-06-27 01:53:00,
2013-06-26 21:01:00,88.0,72.0,29.87,WSW,255,6.0,10.0,60,-99.99,,,-99.99,,2013-06-27 02:01:00,
2013-06-26 21:11:00,87.0,72.0,29.87,WSW,255,7.0,13.0,61,-99.99,,,-99.99,,2013-06-27 02:11:00,
2013-06-26 21:32:00,87.0,72.0,29.87,WSW,255,7.0,11.0,63,-99.99,,,-99.99,,2013-06-27 02:32:00,
2013-06-26 21:42:00,86.0,72.0,29.87,WSW,245,6.0,11.0,63,-99.99,,,-99.99,,2013-06-27 02:42:00,
2013-06-26 21:52:00,85.0,72.0,29.87,WSW,240,5.0,12.0,65,-99.99,,,-99.99,,2013-06-27 02:52:00,
2013-06-26 22:02:00,85.0,72.0,29.87,WSW,240,5.0,12.0,65,-99.99,,,-99.99,,2013-06-27 03:02:00,
2013-06-26 22:11:00,85.0,72.0,29.88,WSW,240,6.0,12.0,65,-99.99,,,-99.99,,2013-06-27 03:11:00,
2013-06-26 22:21:00,85.0,72.0,29.88,WSW,240,6.0,12.0,65,-99.99,,,-99.99,,2013-06-27 03:21:00,
2013-06-26 22:32:00,85.0,72.0,29.88,WSW,250,7.0,12.0,66,-99.99,,,-99.99,,2013-06-27 03:32:00,
2013-06-26 22:42:00,85.0,72.0,29.89,WSW,250,6.0,10.0,66,-99.99,,,-99.99,,2013-06-27 03:42:00,
2013-06-26 23:01:00,84.0,73.0,29.89,WSW,245,6.0,11.0,68,-99.99,,,-99.99,,2013-06-27 04:01:00,
2013-06-26 23:11:00,84.0,72.0,29.90,SW,220,7.0,11.0,68,-99.99,,,-99.99,,2013-06-27 04:11:00,
2013-06-26 23:32:00,83.0,73.0,29.90,SW,215,6.0,11.0,70,-99.99,,,-99.99,,2013-06-27 04:32:00,
2013-06-26 23:42:00,83.0,72.0,29.91,WSW,250,5.0,11.0,70,-99.99,,,-99.99,,2013-06-27 04:42:00,